createdAt,value
2022-11-17T00:00:43.391Z,97821.20
2022-11-17T00:03:18.160Z,97819.00
2022-11-17T00:05:45.823Z,97817.00
2022-11-17T00:08:13.525Z,97816.80
2022-11-17T00:10:41.185Z,97817.40
2022-11-17T00:13:29.691Z,97822.40
2022-11-17T00:15:57.304Z,97813.80
2022-11-17T00:18:44.071Z,97815.80
2022-11-17T00:21:19.019Z,97818.00
2022-11-17T00:23:48.009Z,97816.00
2022-11-17T00:26:28.048Z,97810.40
2022-11-17T00:29:01.916Z,97818.00
2022-11-17T00:31:51.313Z,97821.00
2022-11-17T00:34:23.651Z,97824.80
2022-11-17T00:36:54.530Z,97827.20
2022-11-17T00:39:24.272Z,97829.00
2022-11-17T00:41:51.971Z,97830.20
2022-11-17T00:44:19.616Z,97814.40
2022-11-17T00:46:48.527Z,97821.60
2022-11-17T00:49:16.395Z,97821.40
2022-11-17T00:51:44.017Z,97826.60
2022-11-17T00:54:13.892Z,97826.60
2022-11-17T00:56:41.536Z,97821.80
2022-11-17T00:59:09.573Z,97813.40
2022-11-17T01:01:37.959Z,97813.40
2022-11-17T01:04:07.259Z,97810.80
2022-11-17T01:06:47.747Z,97804.80
2022-11-17T01:09:20.828Z,97812.80
2022-11-17T01:11:51.867Z,97813.80
2022-11-17T01:14:27.147Z,97809.60
2022-11-17T01:16:55.804Z,97813.20
2022-11-17T01:19:24.471Z,97803.00
2022-11-17T01:21:52.205Z,97798.20
2022-11-17T01:24:20.306Z,97802.80
2022-11-17T01:26:49.657Z,97803.00
2022-11-17T01:29:18.431Z,97803.20
2022-11-17T01:31:51.522Z,97795.80
2022-11-17T01:34:19.514Z,97795.40
2022-11-17T01:37:05.890Z,97794.60
2022-11-17T01:39:33.666Z,97800.80
2022-11-17T01:42:14.015Z,97794.80
2022-11-17T01:44:52.549Z,97794.20
2022-11-17T01:47:29.590Z,97791.80
2022-11-17T01:50:08.753Z,97799.20
2022-11-17T01:52:40.312Z,97799.00
2022-11-17T01:55:11.219Z,97805.80
2022-11-17T01:57:50.976Z,97799.40
2022-11-17T02:00:19.377Z,97794.40
2022-11-17T02:02:49.153Z,97795.40
2022-11-17T02:05:57.609Z,97793.40
2022-11-17T02:08:30.464Z,97794.00
2022-11-17T02:11:02.688Z,97796.40
2022-11-17T02:13:30.934Z,97789.20
2022-11-17T02:15:58.633Z,97792.60
2022-11-17T02:18:26.643Z,97787.60
2022-11-17T02:21:31.315Z,97793.80
2022-11-17T02:24:31.182Z,97787.20
2022-11-17T02:27:24.144Z,97790.80
2022-11-17T02:30:14.439Z,97789.60
2022-11-17T02:33:19.919Z,97790.60
2022-11-17T02:36:04.317Z,97793.20
2022-11-17T02:38:50.373Z,97796.40
2022-11-17T02:41:38.676Z,97793.00
2022-11-17T02:44:29.853Z,97793.20
2022-11-17T02:47:23.062Z,97791.60
2022-11-17T02:50:05.114Z,97788.80
2022-11-17T02:52:33.536Z,97789.80
2022-11-17T02:55:10.599Z,97789.80
2022-11-17T02:57:41.543Z,97791.40
2022-11-17T03:00:15.135Z,97789.20
2022-11-17T03:03:34.217Z,97790.80
2022-11-17T03:06:49.351Z,97794.60
2022-11-17T03:09:51.888Z,97790.60
2022-11-17T03:12:43.399Z,97789.20
2022-11-17T03:15:29.191Z,97790.20
2022-11-17T03:18:18.606Z,97791.20
2022-11-17T03:21:06.349Z,97794.40
2022-11-17T03:23:45.318Z,97788.60
2022-11-17T03:26:24.448Z,97785.40
2022-11-17T03:28:54.354Z,97793.40
2022-11-17T03:31:23.829Z,97787.60
2022-11-17T03:33:53.879Z,97781.20
2022-11-17T03:36:31.833Z,97792.60
2022-11-17T03:39:04.855Z,97782.40
2022-11-17T03:41:39.570Z,97788.00
2022-11-17T03:44:07.999Z,97792.20
2022-11-17T03:46:39.004Z,97793.60
2022-11-17T03:49:44.146Z,97799.40
2022-11-17T03:52:11.881Z,97801.60
2022-11-17T03:54:40.840Z,97801.00
2022-11-17T03:57:22.232Z,97798.20
2022-11-17T03:59:58.020Z,97800.60
2022-11-17T04:02:26.991Z,97784.40
2022-11-17T04:05:07.161Z,97788.40
2022-11-17T04:07:40.328Z,97785.00
2022-11-17T04:10:12.874Z,97780.80
2022-11-17T04:12:59.438Z,97783.80
2022-11-17T04:15:47.288Z,97785.60
2022-11-17T04:18:15.788Z,97783.40
2022-11-17T04:20:43.733Z,97780.60
2022-11-17T04:23:15.806Z,97786.00
2022-11-17T04:26:05.756Z,97780.40
2022-11-17T04:28:37.281Z,97790.00
2022-11-17T04:31:20.292Z,97786.20
2022-11-17T04:33:54.812Z,97793.80
2022-11-17T04:36:28.715Z,97792.40
2022-11-17T04:38:59.508Z,97787.20
2022-11-17T04:41:49.112Z,97794.00
2022-11-17T04:44:18.504Z,97801.40
2022-11-17T04:46:46.477Z,97798.00
2022-11-17T04:49:16.954Z,97793.60
2022-11-17T04:51:45.415Z,97797.40
2022-11-17T04:54:16.495Z,97798.80
2022-11-17T04:56:44.639Z,97807.40
2022-11-17T04:59:12.378Z,97811.60
2022-11-17T05:01:40.669Z,97802.40
2022-11-17T05:04:11.838Z,97802.80
2022-11-17T05:06:44.730Z,97797.60
2022-11-17T05:09:15.727Z,97792.20
2022-11-17T05:12:03.162Z,97797.40
2022-11-17T05:14:30.853Z,97793.40
2022-11-17T05:17:11.822Z,97794.20
2022-11-17T05:19:50.020Z,97797.60
2022-11-17T05:22:49.619Z,97795.00
2022-11-17T05:25:17.254Z,97783.20
2022-11-17T05:27:44.999Z,97784.00
2022-11-17T05:30:13.106Z,97787.60
2022-11-17T05:32:40.854Z,97786.00
2022-11-17T05:35:09.014Z,97792.20
2022-11-17T05:37:36.738Z,97799.80
2022-11-17T05:40:05.200Z,97804.80
2022-11-17T05:42:32.869Z,97814.20
2022-11-17T05:45:00.567Z,97813.40
2022-11-17T05:47:28.151Z,97812.80
2022-11-17T05:49:55.855Z,97813.60
2022-11-17T05:52:23.457Z,97812.80
2022-11-17T05:54:51.131Z,97814.40
2022-11-17T05:57:30.714Z,97818.60
2022-11-17T06:00:04.664Z,97823.20
2022-11-17T06:02:43.758Z,97828.40
2022-11-17T06:05:15.677Z,97826.80
2022-11-17T06:07:47.021Z,97832.80
2022-11-17T06:10:14.922Z,97827.20
2022-11-17T06:12:42.758Z,97832.20
2022-11-17T06:15:10.696Z,97840.80
2022-11-17T06:17:46.202Z,97846.20
2022-11-17T06:20:21.710Z,97851.00
2022-11-17T06:22:50.831Z,97858.60
2022-11-17T06:25:20.627Z,97845.60
2022-11-17T06:27:50.920Z,97848.00
2022-11-17T06:30:19.012Z,97844.20
2022-11-17T06:32:50.052Z,97849.80
2022-11-17T06:35:17.948Z,97844.80
2022-11-17T06:37:45.634Z,97845.40
2022-11-17T06:40:13.589Z,97847.00
2022-11-17T06:43:00.136Z,97844.40
2022-11-17T06:45:27.999Z,97855.60
2022-11-17T06:47:55.680Z,97848.40
2022-11-17T06:50:23.323Z,97854.40
2022-11-17T06:52:51.422Z,97851.60
2022-11-17T06:55:19.079Z,97844.60
2022-11-17T06:57:52.982Z,97854.40
2022-11-17T07:00:21.666Z,97862.80
2022-11-17T07:02:49.378Z,97868.60
2022-11-17T07:05:17.444Z,97867.00
2022-11-17T07:07:45.252Z,97865.20
2022-11-17T07:10:13.359Z,97863.20
2022-11-17T07:12:40.990Z,97858.00
2022-11-17T07:15:09.286Z,97847.40
2022-11-17T07:17:36.950Z,97854.20
2022-11-17T07:20:05.993Z,97849.60
2022-11-17T07:22:33.708Z,97846.80
2022-11-17T07:25:01.585Z,97847.20
2022-11-17T07:27:30.597Z,97846.60
2022-11-17T07:29:58.327Z,97849.40
2022-11-17T07:32:26.509Z,97847.20
2022-11-17T07:34:54.245Z,97848.40
2022-11-17T07:37:21.923Z,97844.20
2022-11-17T07:39:49.634Z,97846.20
2022-11-17T07:42:17.377Z,97844.00
2022-11-17T07:44:45.079Z,97847.00
2022-11-17T07:47:12.928Z,97842.40
2022-11-17T07:49:40.634Z,97849.40
2022-11-17T07:52:08.332Z,97850.80
2022-11-17T07:54:35.998Z,97852.80
2022-11-17T07:57:04.128Z,97851.20
2022-11-17T07:59:31.794Z,97863.80
2022-11-17T08:01:59.489Z,97865.80
2022-11-17T08:04:27.465Z,97864.40
2022-11-17T08:06:55.255Z,97864.40
2022-11-17T08:09:22.982Z,97870.60
2022-11-17T08:11:51.825Z,97868.00
2022-11-17T08:14:19.510Z,97870.20
2022-11-17T08:16:47.346Z,97869.00
2022-11-17T08:19:15.133Z,97865.20
2022-11-17T08:21:42.793Z,97860.40
2022-11-17T08:24:12.263Z,97863.00
2022-11-17T08:26:39.975Z,97858.40
2022-11-17T08:29:07.809Z,97867.20
2022-11-17T08:31:35.498Z,97869.20
2022-11-17T08:34:03.194Z,97870.40
2022-11-17T08:36:30.898Z,97878.00
2022-11-17T08:38:58.861Z,97875.60
2022-11-17T08:41:26.740Z,97875.40
2022-11-17T08:43:54.443Z,97871.80
2022-11-17T08:46:22.161Z,97874.60
2022-11-17T08:48:53.873Z,97880.40
2022-11-17T08:51:25.143Z,97876.80
2022-11-17T08:53:52.902Z,97880.00
2022-11-17T08:56:20.735Z,97877.80
2022-11-17T08:58:48.401Z,97880.80
2022-11-17T09:01:16.639Z,97881.60
2022-11-17T09:03:47.538Z,97889.20
2022-11-17T09:06:16.949Z,97890.60
2022-11-17T09:08:46.699Z,97901.20
2022-11-17T09:11:16.424Z,97892.20
2022-11-17T09:13:45.867Z,97889.60
2022-11-17T09:16:14.970Z,97892.40
2022-11-17T09:18:43.624Z,97890.40
2022-11-17T09:21:15.625Z,97895.80
2022-11-17T09:23:43.469Z,97894.40
2022-11-17T09:26:15.094Z,97882.40
2022-11-17T09:28:44.297Z,97884.60
2022-11-17T09:31:19.036Z,97882.80
2022-11-17T09:33:47.201Z,97892.40
2022-11-17T09:36:16.917Z,97896.00
2022-11-17T09:38:46.986Z,97899.20
2022-11-17T09:41:34.085Z,97894.00
2022-11-17T09:44:42.152Z,97896.40
2022-11-17T09:47:45.983Z,97894.60
2022-11-17T09:50:23.566Z,97899.20
2022-11-17T09:53:15.246Z,97900.20
2022-11-17T09:55:49.819Z,97903.60
2022-11-17T09:58:46.173Z,97898.00
2022-11-17T10:01:17.776Z,97903.00
2022-11-17T10:03:48.821Z,97905.00
2022-11-17T10:06:23.700Z,97903.20
2022-11-17T10:09:41.721Z,97904.20
2022-11-17T10:12:31.162Z,97898.60
2022-11-17T10:15:24.195Z,97893.80
2022-11-17T10:17:52.269Z,97892.00
2022-11-17T10:20:21.221Z,97888.20
2022-11-17T10:22:53.660Z,97889.80
2022-11-17T10:25:40.835Z,97892.80
2022-11-17T10:28:25.190Z,97897.40
2022-11-17T10:30:57.820Z,97898.20
2022-11-17T10:33:39.853Z,97892.80
2022-11-17T10:36:28.842Z,97884.40
2022-11-17T10:39:00.503Z,97883.80
2022-11-17T10:41:45.282Z,97874.60
2022-11-17T10:44:12.939Z,97877.40
2022-11-17T10:47:02.596Z,97876.80
2022-11-17T10:49:37.943Z,97874.00
2022-11-17T10:52:09.780Z,97871.20
2022-11-17T10:54:38.867Z,97880.40
2022-11-17T10:57:16.152Z,97876.20
2022-11-17T10:59:56.867Z,97887.00
2022-11-17T11:02:37.193Z,97890.20
2022-11-17T11:05:24.814Z,97886.20
2022-11-17T11:08:25.198Z,97890.00
2022-11-17T11:11:46.150Z,97888.00
2022-11-17T11:14:28.295Z,97895.00
2022-11-17T11:16:55.999Z,97890.00
2022-11-17T11:19:23.739Z,97885.00
2022-11-17T11:22:16.891Z,97879.40
2022-11-17T11:25:44.829Z,97876.00
2022-11-17T11:28:59.722Z,97872.00
2022-11-17T11:32:31.895Z,97859.20
2022-11-17T11:35:27.483Z,97869.40
2022-11-17T11:38:04.150Z,97873.00
2022-11-17T11:40:42.462Z,97874.40
2022-11-17T11:43:43.710Z,97876.80
2022-11-17T11:46:23.762Z,97874.20
2022-11-17T11:48:56.538Z,97872.40
2022-11-17T11:51:37.014Z,97873.00
2022-11-17T11:54:40.455Z,97872.00
2022-11-17T11:57:20.528Z,97877.20
2022-11-17T12:00:21.606Z,97874.20
2022-11-17T12:03:25.466Z,97874.20
2022-11-17T12:06:44.022Z,97878.20
2022-11-17T12:10:05.646Z,97877.60
2022-11-17T12:12:43.993Z,97877.00
2022-11-17T12:15:20.485Z,97883.00
2022-11-17T12:18:06.610Z,97890.60
2022-11-17T12:20:51.040Z,97897.00
2022-11-17T12:23:27.947Z,97885.60
2022-11-17T12:25:59.152Z,97889.60
2022-11-17T12:28:41.408Z,97903.40
2022-11-17T12:31:24.272Z,97918.20
2022-11-17T12:33:52.307Z,97918.00
2022-11-17T12:36:34.039Z,97906.40
2022-11-17T12:39:07.304Z,97905.40
2022-11-17T12:41:47.246Z,97897.80
2022-11-17T12:44:36.761Z,97901.80
2022-11-17T12:47:13.975Z,97902.00
2022-11-17T12:49:59.902Z,97906.20
2022-11-17T12:52:50.296Z,97909.60
2022-11-17T12:55:40.208Z,97902.40
2022-11-17T12:58:38.105Z,97912.80
2022-11-17T13:01:34.442Z,97908.60
2022-11-17T13:04:17.190Z,97917.20
2022-11-17T13:07:06.425Z,97913.80
2022-11-17T13:09:36.583Z,97907.60
2022-11-17T13:12:07.781Z,97914.20
2022-11-17T13:14:52.382Z,97907.00
2022-11-17T13:17:27.882Z,97903.80
2022-11-17T13:20:12.702Z,97893.00
2022-11-17T13:22:42.164Z,97901.60
2022-11-17T13:25:28.514Z,97894.00
2022-11-17T13:28:01.250Z,97882.20
2022-11-17T13:30:33.089Z,97890.60
2022-11-17T13:33:03.956Z,97896.20
2022-11-17T13:35:36.159Z,97894.40
2022-11-17T13:38:19.618Z,97889.40
2022-11-17T13:40:51.000Z,97891.20
2022-11-17T13:43:25.120Z,97891.80
2022-11-17T13:45:54.906Z,97891.00
2022-11-17T13:48:36.678Z,97888.60
2022-11-17T13:51:19.776Z,97888.00
2022-11-17T13:54:13.273Z,97880.80
2022-11-17T13:56:51.330Z,97886.80
2022-11-17T13:59:26.746Z,97887.20
2022-11-17T14:02:17.249Z,97883.20
2022-11-17T14:05:18.355Z,97882.80
2022-11-17T14:07:47.128Z,97879.20
2022-11-17T14:10:20.931Z,97876.00
2022-11-17T14:13:08.614Z,97867.60
2022-11-17T14:15:42.402Z,97867.80
2022-11-17T14:18:37.427Z,97866.00
2022-11-17T14:21:08.111Z,97860.40
2022-11-17T14:23:36.465Z,97856.20
2022-11-17T14:26:05.449Z,97861.80
2022-11-17T14:28:33.620Z,97865.40
2022-11-17T14:31:01.366Z,97866.80
2022-11-17T14:33:28.994Z,97875.00
2022-11-17T14:35:59.679Z,97875.40
2022-11-17T14:38:27.612Z,97877.00
2022-11-17T14:40:55.310Z,97877.40
2022-11-17T14:43:23.157Z,97883.80
2022-11-17T14:45:50.955Z,97874.20
2022-11-17T14:48:20.260Z,97867.60
2022-11-17T14:50:48.688Z,97858.80
2022-11-17T14:53:16.512Z,97856.60
2022-11-17T14:55:44.218Z,97852.80
2022-11-17T14:58:11.853Z,97853.20
2022-11-17T15:00:39.531Z,97848.00
2022-11-17T15:03:07.514Z,97848.60
2022-11-17T15:05:35.221Z,97837.00
2022-11-17T15:08:03.286Z,97833.00
2022-11-17T15:10:30.931Z,97835.60
2022-11-17T15:12:58.668Z,97837.00
2022-11-17T15:15:27.045Z,97829.80
2022-11-17T15:17:54.974Z,97816.20
2022-11-17T15:20:22.578Z,97821.00
2022-11-17T15:22:50.251Z,97823.40
2022-11-17T15:25:17.941Z,97829.80
2022-11-17T15:27:45.753Z,97825.80
2022-11-17T15:30:14.432Z,97830.60
2022-11-17T15:32:42.114Z,97826.40
2022-11-17T15:35:10.561Z,97826.00
2022-11-17T15:37:38.155Z,97834.80
2022-11-17T15:40:06.862Z,97832.80
2022-11-17T15:42:34.946Z,97840.20
2022-11-17T15:45:02.759Z,97842.40
2022-11-17T15:47:30.473Z,97832.60
2022-11-17T15:49:58.573Z,97829.60
2022-11-17T15:52:48.648Z,97827.80
2022-11-17T15:55:14.350Z,97826.20
2022-11-17T15:57:42.049Z,97818.60
2022-11-17T16:00:10.319Z,97820.80
2022-11-17T16:02:41.235Z,97814.20
2022-11-17T16:05:09.289Z,97809.00
2022-11-17T16:07:37.097Z,97806.60
2022-11-17T16:10:05.422Z,97806.20
2022-11-17T16:12:33.209Z,97809.60
2022-11-17T16:15:00.932Z,97815.00
2022-11-17T16:17:28.725Z,97815.80
2022-11-17T16:19:56.753Z,97810.40
2022-11-17T16:22:24.474Z,97816.00
2022-11-17T16:24:52.257Z,97825.80
2022-11-17T16:27:19.992Z,97833.40
2022-11-17T16:29:47.719Z,97831.20
2022-11-17T16:32:15.421Z,97831.60
2022-11-17T16:34:48.418Z,97829.80
2022-11-17T16:37:16.201Z,97838.80
2022-11-17T16:39:43.894Z,97836.80
2022-11-17T16:42:12.187Z,97834.20
2022-11-17T16:44:39.890Z,97837.00
2022-11-17T16:47:07.630Z,97841.80
2022-11-17T16:49:35.859Z,97845.40
2022-11-17T16:52:03.583Z,97855.40
2022-11-17T16:54:31.231Z,97856.60
2022-11-17T16:56:58.971Z,97856.20
2022-11-17T16:59:27.059Z,97855.20
2022-11-17T17:01:54.761Z,97857.60
2022-11-17T17:04:22.522Z,97855.00
2022-11-17T17:06:50.392Z,97854.60
2022-11-17T17:09:21.903Z,97861.80
2022-11-17T17:11:54.254Z,97854.20
2022-11-17T17:14:22.572Z,97852.80
2022-11-17T17:16:50.410Z,97855.80
2022-11-17T17:19:18.594Z,97856.40
2022-11-17T17:21:46.749Z,97852.20
2022-11-17T17:24:14.715Z,97849.40
2022-11-17T17:26:42.786Z,97857.00
2022-11-17T17:29:12.162Z,97850.00
2022-11-17T17:31:42.469Z,97846.40
2022-11-17T17:34:13.980Z,97853.00
2022-11-17T17:36:41.731Z,97844.60
2022-11-17T17:39:15.668Z,97848.60
2022-11-17T17:41:44.490Z,97850.40
2022-11-17T17:44:19.268Z,97850.00
2022-11-17T17:46:48.408Z,97847.00
2022-11-17T17:49:18.826Z,97850.60
2022-11-17T17:51:47.207Z,97852.20
2022-11-17T17:54:18.994Z,97847.00
2022-11-17T17:56:47.955Z,97843.80
2022-11-17T17:59:16.676Z,97845.60
2022-11-17T18:01:46.309Z,97849.20
2022-11-17T18:04:16.099Z,97853.40
2022-11-17T18:06:48.114Z,97856.80
2022-11-17T18:09:19.393Z,97856.80
2022-11-17T18:11:51.551Z,97852.40
2022-11-17T18:14:24.511Z,97851.80
2022-11-17T18:16:54.109Z,97853.20
2022-11-17T18:19:23.980Z,97850.20
2022-11-17T18:21:53.450Z,97836.80
2022-11-17T18:24:21.462Z,97837.40
2022-11-17T18:26:49.534Z,97840.20
2022-11-17T18:29:19.521Z,97829.20
2022-11-17T18:31:49.282Z,97820.80
2022-11-17T18:34:23.601Z,97808.60
2022-11-17T18:36:55.588Z,97801.80
2022-11-17T18:39:23.993Z,97801.60
2022-11-17T18:41:51.757Z,97808.20
2022-11-17T18:44:19.833Z,97811.80
2022-11-17T18:46:47.824Z,97813.60
2022-11-17T18:49:16.107Z,97803.80
2022-11-17T18:51:44.315Z,97805.20
2022-11-17T18:54:13.776Z,97805.80
2022-11-17T18:56:42.200Z,97801.40
2022-11-17T18:59:12.981Z,97805.80
2022-11-17T19:01:42.848Z,97800.80
2022-11-17T19:04:14.859Z,97799.80
2022-11-17T19:06:42.893Z,97800.60
2022-11-17T19:09:11.397Z,97804.80
2022-11-17T19:11:39.522Z,97807.80
2022-11-17T19:14:07.414Z,97819.20
2022-11-17T19:16:44.033Z,97825.40
2022-11-17T19:19:13.673Z,97821.60
2022-11-17T19:21:42.743Z,97824.80
2022-11-17T19:24:10.717Z,97828.80
2022-11-17T19:26:38.570Z,97826.20
2022-11-17T19:29:16.016Z,97821.20
2022-11-17T19:31:46.834Z,97818.20
2022-11-17T19:34:15.847Z,97825.80
2022-11-17T19:36:44.941Z,97831.00
2022-11-17T19:39:14.201Z,97835.80
2022-11-17T19:41:44.983Z,97840.20
2022-11-17T19:44:13.042Z,97836.80
2022-11-17T19:46:40.915Z,97835.80
2022-11-17T19:49:08.807Z,97843.20
2022-11-17T19:51:37.098Z,97839.20
2022-11-17T19:54:08.528Z,97843.60
2022-11-17T19:56:36.842Z,97837.20
2022-11-17T19:59:06.145Z,97835.00
2022-11-17T20:01:34.261Z,97831.60
2022-11-17T20:04:02.341Z,97831.60
2022-11-17T20:06:37.581Z,97831.20
2022-11-17T20:09:12.219Z,97833.20
2022-11-17T20:11:40.878Z,97838.00
2022-11-17T20:14:09.352Z,97829.20
2022-11-17T20:16:38.831Z,97829.80
2022-11-17T20:19:06.739Z,97823.00
2022-11-17T20:21:34.801Z,97821.60
2022-11-17T20:24:03.226Z,97827.00
2022-11-17T20:26:35.045Z,97822.40
2022-11-17T20:29:02.912Z,97811.60
2022-11-17T20:31:34.440Z,97806.00
2022-11-17T20:34:05.246Z,97808.60
2022-11-17T20:36:35.261Z,97800.40
2022-11-17T20:39:06.577Z,97797.80
2022-11-17T20:41:34.741Z,97791.40
2022-11-17T20:44:03.420Z,97786.80
2022-11-17T20:46:31.621Z,97785.80
2022-11-17T20:48:59.407Z,97780.80
2022-11-17T20:51:27.098Z,97778.80
2022-11-17T20:53:54.907Z,97785.40
2022-11-17T20:56:22.739Z,97778.60
2022-11-17T20:58:50.536Z,97779.40
2022-11-17T21:01:21.743Z,97778.80
2022-11-17T21:03:50.065Z,97778.80
2022-11-17T21:06:19.787Z,97773.80
2022-11-17T21:08:47.570Z,97770.20
2022-11-17T21:11:38.336Z,97760.00
2022-11-17T21:14:08.471Z,97756.00
2022-11-17T21:16:45.696Z,97749.60
2022-11-17T21:19:14.451Z,97746.60
2022-11-17T21:21:45.637Z,97741.20
2022-11-17T21:24:13.504Z,97734.60
2022-11-17T21:26:41.850Z,97742.40
2022-11-17T21:29:09.611Z,97745.20
2022-11-17T21:31:37.988Z,97745.60
2022-11-17T21:34:07.540Z,97738.60
2022-11-17T21:36:35.896Z,97737.80
2022-11-17T21:39:04.566Z,97734.00
2022-11-17T21:41:38.575Z,97741.60
2022-11-17T21:44:06.284Z,97747.20
2022-11-17T21:46:36.462Z,97745.20
2022-11-17T21:49:04.391Z,97742.00
2022-11-17T21:51:38.291Z,97746.00
2022-11-17T21:54:09.960Z,97744.00
2022-11-17T21:56:37.873Z,97749.00
2022-11-17T21:59:11.584Z,97741.00
2022-11-17T22:01:40.182Z,97746.40
2022-11-17T22:04:08.099Z,97745.60
2022-11-17T22:06:39.116Z,97740.80
2022-11-17T22:09:07.449Z,97745.00
2022-11-17T22:11:35.594Z,97739.00
2022-11-17T22:14:19.230Z,97738.00
2022-11-17T22:16:48.962Z,97730.60
2022-11-17T22:19:19.289Z,97727.20
2022-11-17T22:21:53.818Z,97728.00
2022-11-17T22:24:21.642Z,97730.20
2022-11-17T22:26:51.597Z,97722.80
2022-11-17T22:29:21.923Z,97721.60
2022-11-17T22:31:50.562Z,97724.00
2022-11-17T22:34:19.134Z,97724.80
2022-11-17T22:36:46.757Z,97721.40
2022-11-17T22:39:16.442Z,97714.60
2022-11-17T22:41:44.259Z,97712.00
2022-11-17T22:44:16.240Z,97709.60
2022-11-17T22:46:44.206Z,97707.20
2022-11-17T22:49:12.736Z,97698.40
2022-11-17T22:51:59.195Z,97703.20
2022-11-17T22:54:27.182Z,97690.00
2022-11-17T22:56:54.875Z,97680.80
2022-11-17T22:59:27.539Z,97685.40
2022-11-17T23:01:55.775Z,97689.20
2022-11-17T23:04:23.934Z,97690.20
2022-11-17T23:06:51.919Z,97684.20
2022-11-17T23:09:19.796Z,97679.20
2022-11-17T23:11:49.289Z,97679.00
2022-11-17T23:14:16.861Z,97682.00
2022-11-17T23:16:44.552Z,97678.40
2022-11-17T23:19:13.842Z,97678.20
2022-11-17T23:21:42.043Z,97681.80
2022-11-17T23:24:12.638Z,97685.60
2022-11-17T23:26:42.266Z,97695.20
2022-11-17T23:29:10.361Z,97691.40
2022-11-17T23:31:38.014Z,97686.80
2022-11-17T23:34:10.447Z,97685.00
2022-11-17T23:36:38.806Z,97685.40
2022-11-17T23:39:07.253Z,97685.60
2022-11-17T23:41:35.564Z,97690.60
2022-11-17T23:44:03.759Z,97693.80
2022-11-17T23:46:32.104Z,97692.80
2022-11-17T23:48:59.729Z,97694.60
2022-11-17T23:51:29.859Z,97694.40
2022-11-17T23:54:00.297Z,97701.20
2022-11-17T23:56:31.905Z,97694.60
2022-11-17T23:58:59.784Z,97695.40
